createdAt,value
2019-03-02T00:03:53.979Z,15.32
2019-03-02T00:12:28.863Z,15.15
2019-03-02T00:15:18.188Z,15.22
2019-03-02T00:17:54.023Z,15.06
2019-03-02T00:20:44.586Z,15.17
2019-03-02T00:23:54.322Z,15.24
2019-03-02T00:26:46.849Z,15.32
2019-03-02T00:33:01.730Z,15.26
2019-03-02T00:35:28.629Z,15.44
2019-03-02T00:38:19.836Z,15.23
2019-03-02T00:40:51.074Z,15.38
2019-03-02T00:47:13.306Z,15.65
2019-03-02T00:53:37.668Z,15.47
2019-03-02T00:56:28.184Z,15.45
2019-03-02T00:59:03.999Z,15.52
2019-03-02T01:02:05.582Z,15.74
2019-03-02T01:10:36.023Z,15.74
2019-03-02T01:16:45.334Z,15.52
2019-03-02T01:19:48.965Z,15.64
2019-03-02T01:22:44.002Z,15.76
2019-03-02T01:28:19.128Z,15.27
2019-03-02T01:31:32.565Z,15.33
2019-03-02T01:34:38.675Z,15.42
2019-03-02T01:37:14.648Z,15.65
2019-03-02T01:39:46.681Z,15.65
2019-03-02T01:45:39.402Z,15.37
2019-03-02T01:48:29.228Z,15.51
2019-03-02T01:57:28.893Z,15.34
2019-03-02T02:03:26.540Z,15.42
2019-03-02T02:12:28.754Z,15.60
2019-03-02T02:15:36.191Z,15.40
2019-03-02T02:18:31.378Z,15.40
2019-03-02T02:24:27.113Z,15.54
2019-03-02T02:27:09.734Z,15.64
2019-03-02T02:30:00.864Z,15.46
2019-03-02T02:32:24.138Z,15.50
2019-03-02T02:35:14.229Z,15.49
2019-03-02T02:37:56.522Z,15.38
2019-03-02T02:40:36.291Z,15.52
2019-03-02T02:43:11.331Z,15.45
2019-03-02T02:49:10.136Z,15.44
2019-03-02T02:51:58.992Z,15.38
2019-03-02T02:54:33.998Z,15.40
2019-03-02T02:57:38.289Z,15.44
2019-03-02T03:03:20.921Z,15.41
2019-03-02T03:05:53.643Z,15.32
2019-03-02T03:08:57.448Z,15.41
2019-03-02T03:11:44.515Z,15.38
2019-03-02T03:17:33.829Z,15.42
2019-03-02T03:20:10.755Z,15.54
2019-03-02T03:23:19.909Z,15.47
2019-03-02T03:26:10.012Z,15.46
2019-03-02T03:28:40.972Z,15.05
2019-03-02T03:31:48.997Z,14.89
2019-03-02T03:34:57.760Z,14.99
2019-03-02T03:37:38.499Z,15.07
2019-03-02T03:40:47.931Z,15.31
2019-03-02T03:43:42.543Z,15.29
2019-03-02T03:47:01.875Z,15.31
2019-03-02T03:52:50.637Z,15.32
2019-03-02T04:02:09.206Z,15.39
2019-03-02T04:05:25.092Z,15.24
2019-03-02T04:11:04.683Z,14.88
2019-03-02T04:16:55.497Z,14.86
2019-03-02T04:19:36.066Z,14.85
2019-03-02T04:25:29.740Z,14.92
2019-03-02T04:34:23.695Z,14.73
2019-03-02T04:36:56.527Z,14.96
2019-03-02T04:39:29.606Z,14.87
2019-03-02T04:42:21.864Z,14.94
2019-03-02T04:44:52.329Z,14.92
2019-03-02T04:47:43.808Z,14.85
2019-03-02T04:50:35.605Z,15.09
2019-03-02T04:53:10.176Z,15.03
2019-03-02T04:55:45.686Z,15.01
2019-03-02T04:58:27.477Z,14.96
2019-03-02T05:03:39.837Z,15.23
2019-03-02T05:09:45.162Z,15.16
2019-03-02T05:12:39.198Z,15.47
2019-03-02T05:15:32.533Z,15.49
2019-03-02T05:21:30.015Z,15.51
2019-03-02T05:24:19.895Z,15.41
2019-03-02T05:30:21.976Z,15.35
2019-03-02T05:32:56.933Z,15.10
2019-03-02T05:35:27.284Z,14.90
2019-03-02T05:38:16.735Z,15.05
2019-03-02T05:44:13.621Z,15.45
2019-03-02T05:49:45.252Z,15.12
2019-03-02T06:01:28.976Z,15.15
2019-03-02T06:07:24.349Z,15.40
2019-03-02T06:09:57.223Z,15.49
2019-03-02T06:13:07.542Z,15.40
2019-03-02T06:15:39.769Z,15.31
2019-03-02T06:18:49.772Z,15.67
2019-03-02T06:21:57.792Z,15.98
2019-03-02T06:24:56.311Z,15.84
2019-03-02T06:27:38.511Z,15.94
2019-03-02T06:30:30.438Z,15.94
2019-03-02T06:33:16.921Z,15.80
2019-03-02T06:42:00.964Z,15.94
2019-03-02T06:44:52.279Z,16.05
2019-03-02T06:48:00.263Z,16.21
2019-03-02T06:50:35.655Z,15.93
2019-03-02T06:53:44.623Z,15.63
2019-03-02T06:56:57.820Z,15.65
2019-03-02T06:59:43.968Z,15.86
2019-03-02T07:02:19.169Z,15.75
2019-03-02T07:07:39.490Z,15.56
2019-03-02T07:13:17.839Z,15.64
2019-03-02T07:19:16.750Z,15.59
2019-03-02T07:21:48.776Z,15.78
2019-03-02T07:24:31.337Z,15.88
2019-03-02T07:30:44.488Z,15.84
2019-03-02T07:36:19.164Z,15.83
2019-03-02T07:38:52.996Z,15.93
2019-03-02T07:41:31.899Z,15.95
2019-03-02T07:44:55.009Z,15.85
2019-03-02T07:50:29.672Z,15.89
2019-03-02T07:53:01.230Z,15.98
2019-03-02T07:55:53.565Z,16.14
2019-03-02T07:58:55.821Z,16.10
2019-03-02T08:04:18.746Z,15.86
2019-03-02T08:07:09.994Z,15.90
2019-03-02T08:10:15.401Z,15.92
2019-03-02T08:15:48.142Z,16.07
2019-03-02T08:18:25.905Z,15.74
2019-03-02T08:30:21.942Z,15.60
2019-03-02T08:33:12.809Z,16.04
2019-03-02T08:36:06.279Z,16.04
2019-03-02T08:38:55.805Z,15.73
2019-03-02T08:41:48.476Z,15.71
2019-03-02T08:44:29.582Z,15.68
2019-03-02T08:47:21.013Z,15.80
2019-03-02T08:49:54.716Z,15.87
2019-03-02T08:56:12.193Z,16.02
2019-03-02T09:01:56.656Z,15.74
2019-03-02T09:07:20.327Z,15.70
2019-03-02T09:13:11.637Z,16.07
2019-03-02T09:16:05.389Z,16.07
2019-03-02T09:18:57.414Z,16.16
2019-03-02T09:22:06.609Z,16.43
2019-03-02T09:24:59.680Z,16.60
2019-03-02T09:30:35.103Z,16.71
2019-03-02T09:33:28.764Z,16.86
2019-03-02T09:36:06.108Z,16.86
2019-03-02T09:38:59.380Z,16.76
2019-03-02T09:47:50.867Z,16.94
2019-03-02T09:53:51.794Z,16.96
2019-03-02T10:00:03.726Z,17.17
2019-03-02T10:02:46.414Z,17.25
2019-03-02T10:12:13.823Z,16.97
2019-03-02T10:17:47.460Z,17.21
2019-03-02T10:20:50.645Z,17.21
2019-03-02T10:23:41.996Z,16.92
2019-03-02T10:29:44.399Z,16.73
2019-03-02T10:42:00.560Z,17.00
2019-03-02T10:45:05.750Z,17.33
2019-03-02T10:47:53.976Z,17.40
2019-03-02T10:50:40.783Z,17.39
2019-03-02T10:56:33.292Z,17.51
2019-03-02T10:59:23.907Z,17.69
2019-03-02T11:05:33.817Z,17.86
2019-03-02T11:08:44.736Z,17.93
2019-03-02T11:11:53.899Z,17.88
2019-03-02T11:15:07.601Z,18.18
2019-03-02T11:18:18.542Z,18.58
2019-03-02T11:21:54.200Z,18.71
2019-03-02T11:24:26.798Z,18.88
2019-03-02T11:33:27.531Z,18.85
2019-03-02T11:36:53.646Z,18.83
2019-03-02T11:45:51.953Z,19.00
2019-03-02T11:49:04.349Z,19.28
2019-03-02T11:52:40.995Z,19.34
2019-03-02T11:55:38.794Z,19.57
2019-03-02T11:58:47.681Z,19.57
2019-03-02T12:04:52.297Z,19.70
2019-03-02T12:07:46.829Z,19.70
2019-03-02T12:10:54.665Z,19.41
2019-03-02T12:13:44.540Z,19.45
2019-03-02T12:16:53.401Z,19.77
2019-03-02T12:19:49.089Z,19.68
2019-03-02T12:23:00.883Z,19.43
2019-03-02T12:26:00.377Z,19.42
2019-03-02T12:29:13.295Z,19.74
2019-03-02T12:32:19.544Z,20.13
2019-03-02T12:35:28.200Z,20.13
2019-03-02T12:41:43.625Z,19.84
2019-03-02T12:44:42.262Z,19.77
2019-03-02T12:47:34.880Z,19.83
2019-03-02T12:50:28.284Z,19.52
2019-03-02T12:53:29.928Z,19.42
2019-03-02T12:56:29.173Z,19.20
2019-03-02T12:59:39.584Z,19.04
2019-03-02T13:03:05.470Z,19.02
2019-03-02T13:06:10.259Z,18.82
2019-03-02T13:08:54.722Z,18.44
2019-03-02T13:12:05.625Z,18.44
2019-03-02T13:18:09.937Z,18.37
2019-03-02T13:21:02.217Z,18.37
2019-03-02T13:24:32.630Z,18.31
2019-03-02T13:27:25.014Z,18.38
2019-03-02T13:30:34.544Z,18.85
2019-03-02T13:33:30.101Z,18.79
2019-03-02T13:37:01.480Z,19.12
2019-03-02T13:43:17.686Z,19.69
2019-03-02T13:49:33.846Z,20.16
2019-03-02T13:55:50.310Z,20.87
2019-03-02T13:59:02.943Z,20.66
2019-03-02T14:02:11.798Z,20.44
2019-03-02T14:05:38.353Z,20.47
2019-03-02T14:08:50.494Z,20.46
2019-03-02T14:12:03.838Z,20.28
2019-03-02T14:14:50.509Z,20.28
2019-03-02T14:17:34.799Z,20.44
2019-03-02T14:20:43.674Z,20.60
2019-03-02T14:23:53.816Z,20.63
2019-03-02T14:30:04.360Z,20.23
2019-03-02T14:33:29.098Z,20.28
2019-03-02T14:36:04.466Z,20.54
2019-03-02T14:39:12.522Z,20.44
2019-03-02T14:42:07.841Z,20.58
2019-03-02T14:45:29.774Z,20.55
2019-03-02T14:48:13.626Z,20.34
2019-03-02T14:51:02.082Z,20.29
2019-03-02T14:57:56.753Z,20.32
2019-03-02T15:01:32.218Z,20.03
2019-03-02T15:04:19.151Z,20.28
2019-03-02T15:07:30.016Z,19.93
2019-03-02T15:11:00.415Z,20.04
2019-03-02T15:14:07.291Z,20.01
2019-03-02T15:17:15.209Z,20.22
2019-03-02T15:23:14.684Z,20.48
2019-03-02T15:32:32.215Z,21.06
2019-03-02T15:38:40.154Z,21.23
2019-03-02T15:42:07.326Z,21.56
2019-03-02T15:48:28.565Z,21.93
2019-03-02T15:51:38.393Z,21.92
2019-03-02T15:54:50.326Z,21.85
2019-03-02T15:57:43.934Z,21.62
2019-03-02T16:00:53.403Z,21.37
2019-03-02T16:07:16.434Z,20.90
2019-03-02T16:10:30.497Z,21.05
2019-03-02T16:13:24.384Z,20.94
2019-03-02T16:16:33.443Z,20.49
2019-03-02T16:19:34.443Z,20.83
2019-03-02T16:22:45.231Z,20.60
2019-03-02T16:25:41.754Z,20.53
2019-03-02T16:28:30.401Z,20.58
2019-03-02T16:31:45.143Z,20.31
2019-03-02T16:34:32.899Z,20.31
2019-03-02T16:38:01.903Z,20.12
2019-03-02T16:41:26.387Z,19.94
2019-03-02T16:44:25.149Z,20.01
2019-03-02T16:47:37.037Z,19.93
2019-03-02T16:50:45.667Z,19.81
2019-03-02T16:53:48.389Z,19.76
2019-03-02T16:57:05.161Z,19.51
2019-03-02T16:59:54.095Z,19.45
2019-03-02T17:03:30.895Z,19.65
2019-03-02T17:06:46.376Z,19.70
2019-03-02T17:09:53.110Z,19.36
2019-03-02T17:16:12.514Z,18.73
2019-03-02T17:19:02.998Z,18.40
2019-03-02T17:24:58.610Z,18.10
2019-03-02T17:28:02.380Z,18.18
2019-03-02T17:30:41.290Z,18.10
2019-03-02T17:33:50.215Z,17.76
2019-03-02T17:36:58.785Z,17.66
2019-03-02T17:40:07.770Z,17.48
2019-03-02T17:43:07.175Z,17.67
2019-03-02T17:46:21.222Z,17.75
2019-03-02T17:49:04.113Z,17.70
2019-03-02T17:52:17.897Z,17.56
2019-03-02T17:55:10.943Z,17.42
2019-03-02T17:58:03.365Z,17.54
2019-03-02T18:01:28.680Z,17.55
2019-03-02T18:04:39.318Z,17.55
2019-03-02T18:17:32.607Z,17.45
2019-03-02T18:20:05.870Z,17.35
2019-03-02T18:26:06.651Z,16.88
2019-03-02T18:29:01.087Z,17.01
2019-03-02T18:41:18.655Z,16.67
2019-03-02T18:44:23.610Z,16.55
2019-03-02T18:47:25.937Z,16.45
2019-03-02T18:50:07.853Z,16.74
2019-03-02T18:53:18.629Z,16.83
2019-03-02T18:59:11.963Z,16.81
2019-03-02T19:02:11.636Z,16.91
2019-03-02T19:08:16.871Z,16.85
2019-03-02T19:11:25.910Z,16.62
2019-03-02T19:13:58.529Z,16.53
2019-03-02T19:17:27.980Z,16.53
2019-03-02T19:20:24.886Z,16.71
2019-03-02T19:22:49.411Z,16.80
2019-03-02T19:29:04.202Z,16.64
2019-03-02T19:35:03.655Z,16.84
2019-03-02T19:38:01.425Z,16.82
2019-03-02T19:41:12.150Z,16.96
2019-03-02T19:44:21.897Z,16.95
2019-03-02T19:47:23.855Z,17.08
2019-03-02T19:53:09.616Z,16.86
2019-03-02T19:56:08.328Z,16.94
2019-03-02T19:59:02.192Z,16.96
2019-03-02T20:01:35.182Z,16.98
2019-03-02T20:04:38.775Z,17.01
2019-03-02T20:19:07.505Z,17.02
2019-03-02T20:21:59.897Z,17.02
2019-03-02T20:24:33.848Z,17.26
2019-03-02T20:27:24.591Z,17.40
2019-03-02T20:33:19.323Z,17.27
2019-03-02T20:36:12.043Z,17.42
2019-03-02T20:42:14.256Z,17.40
2019-03-02T20:45:07.703Z,17.40
2019-03-02T20:47:47.696Z,17.26
2019-03-02T20:50:21.780Z,17.08
2019-03-02T20:52:56.622Z,17.18
2019-03-02T20:55:49.225Z,17.24
2019-03-02T21:05:24.354Z,17.32
2019-03-02T21:08:10.489Z,17.12
2019-03-02T21:13:47.400Z,17.05
2019-03-02T21:20:12.178Z,17.06
2019-03-02T21:22:38.182Z,16.90
2019-03-02T21:34:32.879Z,16.52
2019-03-02T21:37:33.868Z,16.63
2019-03-02T21:44:21.931Z,16.73
2019-03-02T21:47:03.934Z,16.92
2019-03-02T21:49:56.831Z,17.15
2019-03-02T21:52:32.178Z,17.12
2019-03-02T22:04:05.700Z,17.01
2019-03-02T22:06:59.182Z,17.18
2019-03-02T22:09:38.481Z,17.24
2019-03-02T22:28:01.279Z,17.10
2019-03-02T22:36:53.498Z,16.96
2019-03-02T22:39:45.149Z,16.89
2019-03-02T22:42:22.285Z,16.85
2019-03-02T22:44:59.766Z,16.91
2019-03-02T22:48:03.135Z,16.79
2019-03-02T22:51:14.212Z,16.77
2019-03-02T22:54:07.619Z,16.92
2019-03-02T22:56:41.354Z,16.69
2019-03-02T22:59:18.487Z,16.69
2019-03-02T23:05:40.093Z,16.67
2019-03-02T23:08:16.143Z,16.87
2019-03-02T23:10:50.438Z,16.82
2019-03-02T23:13:31.624Z,16.91
2019-03-02T23:19:28.868Z,16.73
2019-03-02T23:25:47.877Z,17.09
2019-03-02T23:28:38.147Z,16.86
2019-03-02T23:31:48.688Z,16.89
2019-03-02T23:34:41.259Z,16.91
2019-03-02T23:37:15.674Z,16.83
2019-03-02T23:40:23.869Z,16.91
2019-03-02T23:43:40.473Z,16.74
2019-03-02T23:46:31.258Z,16.75
2019-03-02T23:49:01.911Z,16.43
2019-03-02T23:51:34.405Z,16.28
2019-03-02T23:54:25.999Z,16.36
2019-03-02T23:56:58.771Z,16.24
2019-03-02T23:59:38.008Z,16.35
